x

Isle Of Shoals, Nh (iosn3) Weather Station

7:00 - Sat 24th Jun 2017 All times are EDT. -4 hours from GMT.

  • Wind
    23mph, 24mph gusts
  • Air Temp 69°f
  • Sea Pressure 998.7mb
  • Isle Of Shoals, Nh
  • Isle Of Shoals, Nh

More Historic Weather Station data

Upgrade to MSW Pro to gain access to the past 30 days of data for over 8000 Wavebouys and Weather Stations around the globe.

Join Pro

Comparision Forecast

View Surf forecast
   
sam. 06/24 7:00 23 24 mph 998.7mb 69f
6:00 29 31 mph 998.3mb 69f
5:00 28 29 mph 998.2mb 66f
4:00 26 28 mph 998.2mb 67f
3:00 26 28 mph 998.7mb 66f
2:00 26 26 mph 999.8mb 68f
1:00 22 22 mph 1000.4mb 68f
12:00 28 29 mph 1000.9mb 69f
ven. 06/23 11:00 31 33 mph 1001mb 68f
10:00 26 28 mph 1001.4mb 67f
9:00 20 21 mph 1001.2mb 67f
8:00 29 31 mph 1001.1mb 65f
7:00 31 31 mph 1001mb 67f
6:00 31 32 mph 1001.7mb 69f
5:00 29 31 mph 1002.4mb 69f
4:00 18 20 mph 1003.5mb 75f
3:00 16 21 mph 1006.2mb 72f
2:00 10 10 mph 1005.1mb 65f
1:00 14 15 mph 1006.2mb 65f
12:00 11 13 mph 1007.3mb 65f
11:00 13 13 mph 1007.9mb 65f
10:00 8 9 mph 1008.2mb 65f
9:00 10 10 mph 1008.9mb 64f
8:00 15 16 mph 1008.7mb 64f
7:00 16 16 mph 1008.5mb 64f
6:00 16 16 mph 1008.6mb 63f
5:00 21 21 mph 1008.3mb 65f
4:00 13 14 mph 1008.8mb 66f
3:00 10 10 mph 1009.5mb 66f
2:00 11 13 mph 1010.4mb 67f
1:00 14 14 mph 1011mb 73f
12:00 17 18 mph 1011.7mb 70f
jeu. 06/22 11:00 14 14 mph 1011.7mb 72f
10:00 11 11 mph 1011.9mb 73f
9:00 13 13 mph 1011.8mb 68f
8:00 14 14 mph 1011.6mb 69f
7:00 18 20 mph 1011.2mb 65f
6:00 23 23 mph 1010.9mb 67f
5:00 22 23 mph 1011.6mb 66f
4:00 23 25 mph 1011.4mb 66f
3:00 22 24 mph 1011.8mb 68f
2:00 20 20 mph 1012.5mb 68f
1:00 14 14 mph 1013mb 69f
12:00 13 13 mph 1013.5mb 69f
11:00 9 9 mph 1013.5mb 68f
10:00 8 8 mph 1014.4mb 68f
9:00 11 11 mph 1014.5mb 66f
8:00 10 11 mph 1014.3mb 62f
7:00 11 11 mph 1014mb 61f
6:00 8 8 mph 1013.5mb 61f
5:00 13 14 mph 1012.8mb 62f
4:00 10 10 mph 1012.5mb 60f
3:00 9 10 mph 1012.3mb 64f
2:00 9 9 mph 1012.2mb 65f
1:00 13 14 mph 1011.9mb 66f
12:00 14 14 mph 1011.7mb 68f
mer. 06/21 11:00 14 14 mph 1011.3mb 70f
10:00 14 14 mph 1011.1mb 71f
9:00 11 11 mph 1010.5mb 73f
8:00 16 17 mph 1009.6mb 75f
7:00 22 23 mph 1009.2mb 75f
6:00 23 25 mph 1008.6mb 75f
5:00 20 22 mph 1008.3mb 74f
4:00 16 18 mph 1008.2mb 73f
3:00 18 20 mph 1008.3mb 74f
2:00 21 22 mph 1008.3mb 75f
1:00 21 22 mph 1008.7mb 73f
12:00 21 23 mph 1009.2mb 73f
11:00 15 15 mph 1009.8mb 69f
10:00 15 16 mph 1010.2mb 65f
9:00 10 10 mph 1010.8mb 65f
8:00 10 11 mph 1011.2mb 66f
7:00 16 16 mph 1011.3mb 65f
6:00 15 15 mph 1011.6mb 65f
5:00 16 17 mph 1011.2mb 65f
4:00 13 13 mph 1011.2mb 64f
3:00 17 17 mph 1011.2mb 69f
2:00 14 15 mph 1011.5mb 67f
1:00 10 13 mph 1011.8mb 64f
12:00 20 20 mph 1011.8mb 73f
mar. 06/20 11:00 17 17 mph 1011.8mb 70f
10:00 14 14 mph 1011.5mb 75f
9:00 15 15 mph 1010.8mb 74f
8:00 22 23 mph 1009.9mb 78f
7:00 18 20 mph 1009.1mb 79f
6:00 28 30 mph 1008.1mb 80f
5:00 24 25 mph 1008.1mb 76f
4:00 26 28 mph 1007.8mb 79f
3:00 6 7 mph 1008.2mb 72f
2:00 23 25 mph 1008.1mb 65f
1:00 24 28 mph 1008.2mb 68f